Warning: Javascript must be enabled to use all the features on this page!


Page Loading - Please Wait...

Click to hideNews Bulletins

Peak Streamflow for Alabama

Click to hide state-specific text


USGS 02373500 PIGEON CREEK NEAR THAD AL

Covington County, Alabama
Hydrologic Unit Code 03140303
Latitude  31°28'36", Longitude  86°39'30" NAD27
Drainage area 307.00  square miles
Gage datum 172.58 feet above NGVD29
Output formats
Table
Graph
Tab-separated file
peakfq (watstore) format
Reselect output format
Water
Year
Date Gage
Height
(feet)
Stream-
flow
(cfs)
1929 1929-03 30.00Bd 24,0002,7,Bd
1938 1938-03-18 26.06 14,400
1939 1939-08-18 25.31 12,600
1940 1940-02-18 17.56 3,740
1941 1940-12-20 14.62 2,180
1942 1941-12-27 20.61 5,730
1943 1943-03-23 25.20 13,400
1944 1944-04-28 24.98 12,800
1945 1945-04-28 12.67 1,570
1946 1946-01-08 25.06 12,600
1947 1947-04-05 18.46 4,220
1948 1948-03-07 22.20 7,540
1949 1948-11-29 27.10 17,100
1950 1950-07-29 10.13 1,110
1951 1951-04-20 14.90 2,520
1952 1952-03-25 16.60 3,320
1953 1953-05-04 14.68 2,430
1954 1953-12-07 20.61 5,860
1955 1955-04-14 17.34 3,500
1956 1956-03-17 13.07 1,830
1957 1957-04-07 20.70 5,930
1958 1958-03-19   1,7001
1959 1959-03-30 17.60 3,670
1960 1960-04-01 24.33 9,680
1961 1961-02-27 27.27 17,700
1962 1962-04-03 18.10 3,970
1963 1963-01-23 17.69 3,720
1964 1964-04-29 27.85 19,000
1965 1965-01-25 23.10 8,500
1966 1966-03-04 21.68 7,120
1967 1967-09-13 22.87 8,300
1968 1968-03-16 12.66 1,740
1969 1969-09-22 14.30 2,190
1970 1970-06-06 22.19 7,200
1990 1990-03-17 31.10 28,5007
?
  Peak Gage-Height Qualification Codes.
?
  Peak Streamflow Qualification Codes.